sensor_id;sensor_type;location;lat;lon;timestamp;P1;durP1;ratioP1;P2;durP2;ratioP2
59093;SDS011;44880;52.814;18.270;2023-07-29T00:02:06;11.80;;;5.40;;
59093;SDS011;44880;52.814;18.270;2023-07-29T00:04:38;11.50;;;5.40;;
59093;SDS011;44880;52.814;18.270;2023-07-29T00:07:10;10.90;;;5.60;;
59093;SDS011;44880;52.814;18.270;2023-07-29T00:09:42;12.90;;;5.50;;
59093;SDS011;44880;52.814;18.270;2023-07-29T00:12:13;11.10;;;5.70;;
59093;SDS011;44880;52.814;18.270;2023-07-29T00:14:45;13.90;;;5.70;;
59093;SDS011;44880;52.814;18.270;2023-07-29T00:17:17;11.70;;;5.80;;
59093;SDS011;44880;52.814;18.270;2023-07-29T00:22:18;11.20;;;5.80;;
59093;SDS011;44880;52.814;18.270;2023-07-29T00:24:52;11.30;;;5.50;;
59093;SDS011;44880;52.814;18.270;2023-07-29T00:27:25;11.60;;;6.10;;
59093;SDS011;44880;52.814;18.270;2023-07-29T00:29:57;10.80;;;6.20;;
59093;SDS011;44880;52.814;18.270;2023-07-29T00:32:29;11.10;;;6.70;;
59093;SDS011;44880;52.814;18.270;2023-07-29T00:35:01;10.60;;;6.40;;
59093;SDS011;44880;52.814;18.270;2023-07-29T00:37:33;11.30;;;6.30;;
59093;SDS011;44880;52.814;18.270;2023-07-29T00:40:09;11.30;;;6.30;;
59093;SDS011;44880;52.814;18.270;2023-07-29T00:42:45;11.40;;;6.30;;
59093;SDS011;44880;52.814;18.270;2023-07-29T00:45:16;11.90;;;6.10;;
59093;SDS011;44880;52.814;18.270;2023-07-29T00:47:49;12.30;;;5.40;;
59093;SDS011;44880;52.814;18.270;2023-07-29T00:50:21;10.80;;;5.70;;
59093;SDS011;44880;52.814;18.270;2023-07-29T00:52:53;12.00;;;5.60;;
59093;SDS011;44880;52.814;18.270;2023-07-29T00:55:26;11.30;;;5.40;;
59093;SDS011;44880;52.814;18.270;2023-07-29T00:57:58;10.80;;;5.20;;
59093;SDS011;44880;52.814;18.270;2023-07-29T01:00:30;10.40;;;5.10;;
59093;SDS011;44880;52.814;18.270;2023-07-29T01:03:02;10.30;;;5.60;;
59093;SDS011;44880;52.814;18.270;2023-07-29T01:05:36;9.90;;;5.30;;
59093;SDS011;44880;52.814;18.270;2023-07-29T01:08:15;9.80;;;5.30;;
59093;SDS011;44880;52.814;18.270;2023-07-29T01:10:55;10.70;;;5.80;;
59093;SDS011;44880;52.814;18.270;2023-07-29T01:13:33;11.70;;;6.10;;
59093;SDS011;44880;52.814;18.270;2023-07-29T01:16:10;10.30;;;5.70;;
59093;SDS011;44880;52.814;18.270;2023-07-29T01:18:45;10.00;;;5.20;;
59093;SDS011;44880;52.814;18.270;2023-07-29T01:21:18;12.00;;;5.80;;
59093;SDS011;44880;52.814;18.270;2023-07-29T01:23:53;9.70;;;5.10;;
59093;SDS011;44880;52.814;18.270;2023-07-29T01:26:29;11.70;;;5.80;;
59093;SDS011;44880;52.814;18.270;2023-07-29T01:29:01;10.00;;;5.50;;
59093;SDS011;44880;52.814;18.270;2023-07-29T01:31:34;11.20;;;5.90;;
59093;SDS011;44880;52.814;18.270;2023-07-29T01:34:17;11.40;;;6.40;;
59093;SDS011;44880;52.814;18.270;2023-07-29T01:36:53;10.50;;;6.00;;
59093;SDS011;44880;52.814;18.270;2023-07-29T01:39:26;10.90;;;5.90;;
59093;SDS011;44880;52.814;18.270;2023-07-29T01:42:00;11.90;;;6.30;;
59093;SDS011;44880;52.814;18.270;2023-07-29T01:44:32;13.00;;;5.60;;
59093;SDS011;44880;52.814;18.270;2023-07-29T01:47:04;11.10;;;5.40;;
59093;SDS011;44880;52.814;18.270;2023-07-29T01:49:36;10.80;;;5.30;;
59093;SDS011;44880;52.814;18.270;2023-07-29T01:52:08;9.70;;;4.60;;
59093;SDS011;44880;52.814;18.270;2023-07-29T01:54:40;10.00;;;5.00;;
59093;SDS011;44880;52.814;18.270;2023-07-29T01:57:12;10.10;;;5.10;;
59093;SDS011;44880;52.814;18.270;2023-07-29T01:59:44;10.00;;;4.80;;
59093;SDS011;44880;52.814;18.270;2023-07-29T02:04:46;10.90;;;5.80;;
59093;SDS011;44880;52.814;18.270;2023-07-29T02:07:19;11.00;;;6.10;;
59093;SDS011;44880;52.814;18.270;2023-07-29T02:09:51;11.90;;;5.70;;
59093;SDS011;44880;52.814;18.270;2023-07-29T02:12:23;9.50;;;5.40;;
59093;SDS011;44880;52.814;18.270;2023-07-29T02:14:54;9.60;;;5.00;;
59093;SDS011;44880;52.814;18.270;2023-07-29T02:17:26;11.20;;;6.30;;
59093;SDS011;44880;52.814;18.270;2023-07-29T02:19:58;12.40;;;7.00;;
59093;SDS011;44880;52.814;18.270;2023-07-29T02:22:31;10.90;;;6.80;;
59093;SDS011;44880;52.814;18.270;2023-07-29T02:25:03;13.70;;;7.90;;
59093;SDS011;44880;52.814;18.270;2023-07-29T02:27:38;13.90;;;8.30;;
59093;SDS011;44880;52.814;18.270;2023-07-29T02:30:10;15.40;;;9.30;;
59093;SDS011;44880;52.814;18.270;2023-07-29T02:32:42;13.70;;;8.70;;
59093;SDS011;44880;52.814;18.270;2023-07-29T02:35:14;16.10;;;10.50;;
59093;SDS011;44880;52.814;18.270;2023-07-29T02:37:46;15.00;;;10.00;;
59093;SDS011;44880;52.814;18.270;2023-07-29T02:40:22;12.00;;;8.30;;
59093;SDS011;44880;52.814;18.270;2023-07-29T02:42:55;13.50;;;8.80;;
59093;SDS011;44880;52.814;18.270;2023-07-29T02:45:27;12.20;;;7.20;;
59093;SDS011;44880;52.814;18.270;2023-07-29T02:47:59;13.30;;;7.40;;
59093;SDS011;44880;52.814;18.270;2023-07-29T02:50:31;10.70;;;7.20;;
59093;SDS011;44880;52.814;18.270;2023-07-29T02:53:02;12.30;;;7.80;;
59093;SDS011;44880;52.814;18.270;2023-07-29T02:55:34;12.80;;;7.70;;
59093;SDS011;44880;52.814;18.270;2023-07-29T02:58:06;13.50;;;8.40;;
59093;SDS011;44880;52.814;18.270;2023-07-29T03:00:38;12.70;;;8.00;;
59093;SDS011;44880;52.814;18.270;2023-07-29T03:03:10;12.90;;;8.40;;
59093;SDS011;44880;52.814;18.270;2023-07-29T03:05:42;12.80;;;7.70;;
59093;SDS011;44880;52.814;18.270;2023-07-29T03:08:14;14.50;;;8.10;;
59093;SDS011;44880;52.814;18.270;2023-07-29T03:10:46;12.70;;;7.10;;
59093;SDS011;44880;52.814;18.270;2023-07-29T03:13:17;12.20;;;7.20;;
59093;SDS011;44880;52.814;18.270;2023-07-29T03:15:49;11.90;;;6.90;;
59093;SDS011;44880;52.814;18.270;2023-07-29T03:18:21;12.70;;;7.30;;
59093;SDS011;44880;52.814;18.270;2023-07-29T03:23:23;15.00;;;8.50;;
59093;SDS011;44880;52.814;18.270;2023-07-29T03:25:56;12.50;;;8.00;;
59093;SDS011;44880;52.814;18.270;2023-07-29T03:28:28;14.10;;;8.90;;
59093;SDS011;44880;52.814;18.270;2023-07-29T03:31:03;16.30;;;9.30;;
59093;SDS011;44880;52.814;18.270;2023-07-29T03:33:35;17.60;;;12.00;;
59093;SDS011;44880;52.814;18.270;2023-07-29T03:36:07;16.10;;;9.60;;
59093;SDS011;44880;52.814;18.270;2023-07-29T03:38:39;15.60;;;9.00;;
59093;SDS011;44880;52.814;18.270;2023-07-29T03:41:13;12.50;;;8.00;;
59093;SDS011;44880;52.814;18.270;2023-07-29T03:43:45;12.90;;;7.50;;
59093;SDS011;44880;52.814;18.270;2023-07-29T03:46:17;13.00;;;7.80;;
59093;SDS011;44880;52.814;18.270;2023-07-29T03:48:50;14.30;;;8.40;;
59093;SDS011;44880;52.814;18.270;2023-07-29T03:51:22;13.20;;;8.20;;
59093;SDS011;44880;52.814;18.270;2023-07-29T03:56:23;15.40;;;8.30;;
59093;SDS011;44880;52.814;18.270;2023-07-29T03:58:57;13.70;;;8.20;;
59093;SDS011;44880;52.814;18.270;2023-07-29T04:01:34;12.50;;;7.70;;
59093;SDS011;44880;52.814;18.270;2023-07-29T04:04:06;12.30;;;7.70;;
59093;SDS011;44880;52.814;18.270;2023-07-29T04:06:38;12.40;;;6.40;;
59093;SDS011;44880;52.814;18.270;2023-07-29T04:09:10;12.60;;;6.90;;
59093;SDS011;44880;52.814;18.270;2023-07-29T04:14:11;11.10;;;6.80;;
59093;SDS011;44880;52.814;18.270;2023-07-29T04:16:43;11.50;;;7.10;;
59093;SDS011;44880;52.814;18.270;2023-07-29T04:19:21;12.20;;;7.00;;
59093;SDS011;44880;52.814;18.270;2023-07-29T04:21:53;11.30;;;7.70;;
59093;SDS011;44880;52.814;18.270;2023-07-29T04:24:24;13.40;;;8.20;;
59093;SDS011;44880;52.814;18.270;2023-07-29T04:26:56;11.80;;;7.40;;
59093;SDS011;44880;52.814;18.270;2023-07-29T04:29:43;13.80;;;8.20;;
59093;SDS011;44880;52.814;18.270;2023-07-29T04:32:15;12.30;;;7.70;;
59093;SDS011;44880;52.814;18.270;2023-07-29T04:34:47;16.00;;;8.40;;
59093;SDS011;44880;52.814;18.270;2023-07-29T04:37:33;13.70;;;6.80;;
59093;SDS011;44880;52.814;18.270;2023-07-29T04:40:06;13.20;;;6.50;;
59093;SDS011;44880;52.814;18.270;2023-07-29T04:42:39;13.00;;;5.60;;
59093;SDS011;44880;52.814;18.270;2023-07-29T04:45:35;11.80;;;5.70;;
59093;SDS011;44880;52.814;18.270;2023-07-29T04:48:07;9.80;;;5.30;;
59093;SDS011;44880;52.814;18.270;2023-07-29T04:50:52;10.90;;;6.00;;
59093;SDS011;44880;52.814;18.270;2023-07-29T04:53:24;13.60;;;8.10;;
59093;SDS011;44880;52.814;18.270;2023-07-29T04:55:55;16.10;;;9.40;;
59093;SDS011;44880;52.814;18.270;2023-07-29T04:58:27;17.60;;;9.40;;
59093;SDS011;44880;52.814;18.270;2023-07-29T05:01:14;13.70;;;8.30;;
59093;SDS011;44880;52.814;18.270;2023-07-29T05:03:46;14.40;;;7.80;;
59093;SDS011;44880;52.814;18.270;2023-07-29T05:06:18;13.50;;;8.00;;
59093;SDS011;44880;52.814;18.270;2023-07-29T05:09:13;12.20;;;7.30;;
59093;SDS011;44880;52.814;18.270;2023-07-29T05:11:46;12.80;;;7.20;;
59093;SDS011;44880;52.814;18.270;2023-07-29T05:14:30;15.40;;;8.50;;
59093;SDS011;44880;52.814;18.270;2023-07-29T05:17:02;13.90;;;8.30;;
59093;SDS011;44880;52.814;18.270;2023-07-29T05:19:35;12.20;;;8.10;;
59093;SDS011;44880;52.814;18.270;2023-07-29T05:22:06;12.30;;;7.90;;
59093;SDS011;44880;52.814;18.270;2023-07-29T05:24:59;12.30;;;7.80;;
59093;SDS011;44880;52.814;18.270;2023-07-29T05:28:13;12.10;;;7.20;;
59093;SDS011;44880;52.814;18.270;2023-07-29T05:30:45;14.10;;;7.80;;
59093;SDS011;44880;52.814;18.270;2023-07-29T05:33:16;13.40;;;6.70;;
59093;SDS011;44880;52.814;18.270;2023-07-29T05:35:57;13.40;;;7.30;;
59093;SDS011;44880;52.814;18.270;2023-07-29T05:38:29;12.00;;;7.10;;
59093;SDS011;44880;52.814;18.270;2023-07-29T05:41:01;11.00;;;6.70;;
59093;SDS011;44880;52.814;18.270;2023-07-29T05:43:38;11.00;;;6.30;;
59093;SDS011;44880;52.814;18.270;2023-07-29T05:46:21;12.70;;;7.60;;
59093;SDS011;44880;52.814;18.270;2023-07-29T05:48:52;11.10;;;7.20;;
59093;SDS011;44880;52.814;18.270;2023-07-29T05:51:24;14.20;;;7.90;;
59093;SDS011;44880;52.814;18.270;2023-07-29T05:54:28;12.60;;;8.60;;
59093;SDS011;44880;52.814;18.270;2023-07-29T05:56:59;12.00;;;8.10;;
59093;SDS011;44880;52.814;18.270;2023-07-29T05:59:36;15.20;;;9.00;;
59093;SDS011;44880;52.814;18.270;2023-07-29T06:02:08;15.40;;;8.20;;
59093;SDS011;44880;52.814;18.270;2023-07-29T06:04:40;14.50;;;7.90;;
59093;SDS011;44880;52.814;18.270;2023-07-29T06:09:58;15.10;;;8.10;;
59093;SDS011;44880;52.814;18.270;2023-07-29T06:15:32;15.80;;;8.00;;
59093;SDS011;44880;52.814;18.270;2023-07-29T06:18:15;14.30;;;8.20;;
59093;SDS011;44880;52.814;18.270;2023-07-29T06:20:58;13.30;;;7.50;;
59093;SDS011;44880;52.814;18.270;2023-07-29T06:23:30;13.50;;;7.70;;
59093;SDS011;44880;52.814;18.270;2023-07-29T06:29:03;14.60;;;8.50;;
59093;SDS011;44880;52.814;18.270;2023-07-29T06:34:38;16.50;;;7.90;;
59093;SDS011;44880;52.814;18.270;2023-07-29T06:39:58;14.40;;;6.60;;
59093;SDS011;44880;52.814;18.270;2023-07-29T06:42:45;12.10;;;6.50;;
59093;SDS011;44880;52.814;18.270;2023-07-29T06:45:36;13.10;;;7.70;;
59093;SDS011;44880;52.814;18.270;2023-07-29T06:48:17;11.00;;;6.50;;
59093;SDS011;44880;52.814;18.270;2023-07-29T06:54:46;10.80;;;6.90;;
59093;SDS011;44880;52.814;18.270;2023-07-29T06:57:18;13.10;;;6.90;;
59093;SDS011;44880;52.814;18.270;2023-07-29T06:59:56;11.80;;;6.80;;
59093;SDS011;44880;52.814;18.270;2023-07-29T07:02:31;11.10;;;6.10;;
59093;SDS011;44880;52.814;18.270;2023-07-29T07:05:10;9.40;;;5.20;;
59093;SDS011;44880;52.814;18.270;2023-07-29T07:07:52;9.00;;;5.30;;
59093;SDS011;44880;52.814;18.270;2023-07-29T07:13:00;9.80;;;5.70;;
59093;SDS011;44880;52.814;18.270;2023-07-29T07:18:18;11.10;;;6.30;;
59093;SDS011;44880;52.814;18.270;2023-07-29T07:20:55;10.60;;;6.60;;
59093;SDS011;44880;52.814;18.270;2023-07-29T07:26:16;10.00;;;5.20;;
59093;SDS011;44880;52.814;18.270;2023-07-29T07:31:51;8.80;;;4.20;;
59093;SDS011;44880;52.814;18.270;2023-07-29T07:34:26;9.00;;;4.80;;
59093;SDS011;44880;52.814;18.270;2023-07-29T07:39:41;8.20;;;4.20;;
59093;SDS011;44880;52.814;18.270;2023-07-29T07:42:20;7.30;;;3.20;;
59093;SDS011;44880;52.814;18.270;2023-07-29T07:47:35;6.80;;;2.80;;
59093;SDS011;44880;52.814;18.270;2023-07-29T07:50:12;8.20;;;3.60;;
59093;SDS011;44880;52.814;18.270;2023-07-29T07:52:53;6.80;;;3.10;;
59093;SDS011;44880;52.814;18.270;2023-07-29T07:55:34;8.10;;;4.50;;
59093;SDS011;44880;52.814;18.270;2023-07-29T07:58:06;7.80;;;4.10;;
59093;SDS011;44880;52.814;18.270;2023-07-29T08:03:42;8.10;;;4.10;;
59093;SDS011;44880;52.814;18.270;2023-07-29T08:09:08;7.30;;;3.30;;
59093;SDS011;44880;52.814;18.270;2023-07-29T08:11:40;7.90;;;3.90;;
59093;SDS011;44880;52.814;18.270;2023-07-29T08:16:51;9.20;;;5.00;;
59093;SDS011;44880;52.814;18.270;2023-07-29T08:19:30;9.50;;;4.00;;
59093;SDS011;44880;52.814;18.270;2023-07-29T08:25:04;8.10;;;4.00;;
59093;SDS011;44880;52.814;18.270;2023-07-29T08:27:47;8.30;;;4.50;;
59093;SDS011;44880;52.814;18.270;2023-07-29T08:30:21;9.10;;;4.60;;
59093;SDS011;44880;52.814;18.270;2023-07-29T08:32:53;9.40;;;4.40;;
59093;SDS011;44880;52.814;18.270;2023-07-29T08:35:25;9.40;;;4.50;;
59093;SDS011;44880;52.814;18.270;2023-07-29T08:38:14;8.10;;;4.30;;
59093;SDS011;44880;52.814;18.270;2023-07-29T08:40:49;7.90;;;3.60;;
59093;SDS011;44880;52.814;18.270;2023-07-29T08:43:35;8.40;;;3.40;;
59093;SDS011;44880;52.814;18.270;2023-07-29T08:46:15;6.50;;;3.00;;
59093;SDS011;44880;52.814;18.270;2023-07-29T08:48:47;6.70;;;2.90;;
59093;SDS011;44880;52.814;18.270;2023-07-29T08:54:15;6.70;;;3.20;;
59093;SDS011;44880;52.814;18.270;2023-07-29T08:56:47;7.50;;;3.30;;
59093;SDS011;44880;52.814;18.270;2023-07-29T08:59:44;6.30;;;2.50;;
59093;SDS011;44880;52.814;18.270;2023-07-29T09:02:16;7.40;;;2.30;;
59093;SDS011;44880;52.814;18.270;2023-07-29T09:04:59;6.00;;;1.90;;
59093;SDS011;44880;52.814;18.270;2023-07-29T09:07:35;7.10;;;2.60;;
59093;SDS011;44880;52.814;18.270;2023-07-29T09:10:10;8.70;;;3.40;;
59093;SDS011;44880;52.814;18.270;2023-07-29T09:12:49;6.80;;;2.80;;
59093;SDS011;44880;52.814;18.270;2023-07-29T09:15:27;5.80;;;2.60;;
59093;SDS011;44880;52.814;18.270;2023-07-29T09:18:00;6.00;;;2.20;;
59093;SDS011;44880;52.814;18.270;2023-07-29T09:23:39;7.10;;;3.50;;
59093;SDS011;44880;52.814;18.270;2023-07-29T09:26:14;6.90;;;2.80;;
59093;SDS011;44880;52.814;18.270;2023-07-29T09:31:27;6.50;;;2.10;;
59093;SDS011;44880;52.814;18.270;2023-07-29T09:34:00;6.30;;;2.30;;
59093;SDS011;44880;52.814;18.270;2023-07-29T09:36:50;7.20;;;2.20;;
59093;SDS011;44880;52.814;18.270;2023-07-29T09:39:22;6.70;;;2.30;;
59093;SDS011;44880;52.814;18.270;2023-07-29T09:45:00;5.80;;;2.00;;
59093;SDS011;44880;52.814;18.270;2023-07-29T09:50:18;6.40;;;1.70;;
59093;SDS011;44880;52.814;18.270;2023-07-29T09:52:56;5.00;;;1.70;;
59093;SDS011;44880;52.814;18.270;2023-07-29T09:58:26;5.10;;;1.70;;
59093;SDS011;44880;52.814;18.270;2023-07-29T10:00:58;4.80;;;1.60;;
59093;SDS011;44880;52.814;18.270;2023-07-29T10:03:51;4.30;;;1.60;;
59093;SDS011;44880;52.814;18.270;2023-07-29T10:06:24;5.60;;;2.10;;
59093;SDS011;44880;52.814;18.270;2023-07-29T10:11:45;5.20;;;1.60;;
59093;SDS011;44880;52.814;18.270;2023-07-29T10:14:19;5.20;;;1.60;;
59093;SDS011;44880;52.814;18.270;2023-07-29T10:17:04;4.80;;;1.50;;
59093;SDS011;44880;52.814;18.270;2023-07-29T10:19:36;4.60;;;1.50;;
59093;SDS011;44880;52.814;18.270;2023-07-29T10:22:14;5.60;;;1.80;;
59093;SDS011;44880;52.814;18.270;2023-07-29T10:27:49;8.50;;;5.00;;
59093;SDS011;44880;52.814;18.270;2023-07-29T10:33:25;4.80;;;1.40;;
59093;SDS011;44880;52.814;18.270;2023-07-29T10:35:57;4.00;;;1.50;;
59093;SDS011;44880;52.814;18.270;2023-07-29T10:38:48;7.20;;;2.70;;
59093;SDS011;44880;52.814;18.270;2023-07-29T10:41:23;4.90;;;1.60;;
59093;SDS011;44880;52.814;18.270;2023-07-29T10:47:29;6.10;;;1.60;;
59093;SDS011;44880;52.814;18.270;2023-07-29T10:50:16;6.90;;;2.00;;
59093;SDS011;44880;52.814;18.270;2023-07-29T10:52:59;5.80;;;1.90;;
59093;SDS011;44880;52.814;18.270;2023-07-29T10:55:39;3.70;;;1.30;;
59093;SDS011;44880;52.814;18.270;2023-07-29T10:58:15;4.20;;;1.30;;
59093;SDS011;44880;52.814;18.270;2023-07-29T11:03:33;5.90;;;1.90;;
59093;SDS011;44880;52.814;18.270;2023-07-29T11:06:08;4.20;;;1.70;;
59093;SDS011;44880;52.814;18.270;2023-07-29T11:11:50;4.60;;;1.70;;
59093;SDS011;44880;52.814;18.270;2023-07-29T11:17:18;5.00;;;1.60;;
59093;SDS011;44880;52.814;18.270;2023-07-29T11:19:49;5.70;;;1.80;;
59093;SDS011;44880;52.814;18.270;2023-07-29T11:22:42;3.90;;;1.40;;
59093;SDS011;44880;52.814;18.270;2023-07-29T11:25:23;4.70;;;1.50;;
59093;SDS011;44880;52.814;18.270;2023-07-29T11:28:02;5.70;;;1.40;;
59093;SDS011;44880;52.814;18.270;2023-07-29T11:30:34;4.50;;;1.50;;
59093;SDS011;44880;52.814;18.270;2023-07-29T11:33:09;4.40;;;1.60;;
59093;SDS011;44880;52.814;18.270;2023-07-29T11:38:31;5.60;;;1.70;;
59093;SDS011;44880;52.814;18.270;2023-07-29T11:41:18;4.20;;;1.40;;
59093;SDS011;44880;52.814;18.270;2023-07-29T11:44:16;4.60;;;1.40;;
59093;SDS011;44880;52.814;18.270;2023-07-29T11:46:47;5.50;;;1.70;;
59093;SDS011;44880;52.814;18.270;2023-07-29T11:52:10;7.80;;;2.30;;
59093;SDS011;44880;52.814;18.270;2023-07-29T11:54:42;6.90;;;2.40;;
59093;SDS011;44880;52.814;18.270;2023-07-29T11:57:31;5.20;;;2.00;;
59093;SDS011;44880;52.814;18.270;2023-07-29T12:00:14;4.40;;;1.60;;
59093;SDS011;44880;52.814;18.270;2023-07-29T12:05:45;4.60;;;1.50;;
59093;SDS011;44880;52.814;18.270;2023-07-29T12:08:17;4.20;;;1.50;;
59093;SDS011;44880;52.814;18.270;2023-07-29T12:11:02;4.60;;;1.60;;
59093;SDS011;44880;52.814;18.270;2023-07-29T12:13:43;5.80;;;1.50;;
59093;SDS011;44880;52.814;18.270;2023-07-29T12:16:29;5.30;;;1.50;;
59093;SDS011;44880;52.814;18.270;2023-07-29T12:19:06;4.20;;;1.50;;
59093;SDS011;44880;52.814;18.270;2023-07-29T12:21:38;4.80;;;1.40;;
59093;SDS011;44880;52.814;18.270;2023-07-29T12:24:23;4.20;;;1.50;;
59093;SDS011;44880;52.814;18.270;2023-07-29T12:26:57;4.50;;;1.70;;
59093;SDS011;44880;52.814;18.270;2023-07-29T12:29:29;5.00;;;1.60;;
59093;SDS011;44880;52.814;18.270;2023-07-29T12:32:14;4.70;;;1.60;;
59093;SDS011;44880;52.814;18.270;2023-07-29T12:34:53;5.50;;;1.80;;
59093;SDS011;44880;52.814;18.270;2023-07-29T12:37:32;5.50;;;1.70;;
59093;SDS011;44880;52.814;18.270;2023-07-29T12:43:10;4.40;;;1.70;;
59093;SDS011;44880;52.814;18.270;2023-07-29T12:45:56;5.10;;;1.90;;
59093;SDS011;44880;52.814;18.270;2023-07-29T12:48:39;5.50;;;2.10;;
59093;SDS011;44880;52.814;18.270;2023-07-29T12:54:22;6.10;;;2.00;;
59093;SDS011;44880;52.814;18.270;2023-07-29T12:59:52;5.80;;;2.40;;
59093;SDS011;44880;52.814;18.270;2023-07-29T13:07:59;6.10;;;1.90;;
59093;SDS011;44880;52.814;18.270;2023-07-29T13:10:43;5.60;;;1.90;;
59093;SDS011;44880;52.814;18.270;2023-07-29T13:13:24;5.80;;;2.10;;
59093;SDS011;44880;52.814;18.270;2023-07-29T13:18:47;7.90;;;2.20;;
59093;SDS011;44880;52.814;18.270;2023-07-29T13:21:19;6.50;;;2.40;;
59093;SDS011;44880;52.814;18.270;2023-07-29T13:26:41;7.30;;;2.50;;
59093;SDS011;44880;52.814;18.270;2023-07-29T13:29:13;5.20;;;1.90;;
59093;SDS011;44880;52.814;18.270;2023-07-29T13:31:58;7.00;;;2.00;;
59093;SDS011;44880;52.814;18.270;2023-07-29T13:34:30;6.40;;;2.00;;
59093;SDS011;44880;52.814;18.270;2023-07-29T13:37:10;5.90;;;2.00;;
59093;SDS011;44880;52.814;18.270;2023-07-29T13:39:49;6.40;;;2.10;;
59093;SDS011;44880;52.814;18.270;2023-07-29T13:42:22;6.10;;;2.10;;
59093;SDS011;44880;52.814;18.270;2023-07-29T13:44:57;6.10;;;2.00;;
59093;SDS011;44880;52.814;18.270;2023-07-29T13:50:18;6.90;;;2.30;;
59093;SDS011;44880;52.814;18.270;2023-07-29T13:52:52;6.40;;;2.10;;
59093;SDS011;44880;52.814;18.270;2023-07-29T13:58:10;7.60;;;2.20;;
59093;SDS011;44880;52.814;18.270;2023-07-29T14:00:42;6.10;;;2.00;;
59093;SDS011;44880;52.814;18.270;2023-07-29T14:05:59;6.10;;;2.20;;
59093;SDS011;44880;52.814;18.270;2023-07-29T14:08:36;6.50;;;2.10;;
59093;SDS011;44880;52.814;18.270;2023-07-29T14:11:21;6.00;;;2.20;;
59093;SDS011;44880;52.814;18.270;2023-07-29T14:13:55;5.80;;;2.30;;
59093;SDS011;44880;52.814;18.270;2023-07-29T14:16:30;5.80;;;2.30;;
59093;SDS011;44880;52.814;18.270;2023-07-29T14:22:06;6.80;;;2.70;;
59093;SDS011;44880;52.814;18.270;2023-07-29T14:24:45;8.80;;;4.30;;
59093;SDS011;44880;52.814;18.270;2023-07-29T14:27:25;8.50;;;2.80;;
59093;SDS011;44880;52.814;18.270;2023-07-29T14:30:01;9.40;;;5.10;;
59093;SDS011;44880;52.814;18.270;2023-07-29T14:32:46;12.90;;;8.80;;
59093;SDS011;44880;52.814;18.270;2023-07-29T14:35:20;19.50;;;17.50;;
59093;SDS011;44880;52.814;18.270;2023-07-29T14:37:54;9.00;;;4.70;;
59093;SDS011;44880;52.814;18.270;2023-07-29T14:43:11;7.70;;;3.10;;
59093;SDS011;44880;52.814;18.270;2023-07-29T14:45:46;7.00;;;2.90;;
59093;SDS011;44880;52.814;18.270;2023-07-29T14:48:34;11.90;;;8.50;;
59093;SDS011;44880;52.814;18.270;2023-07-29T14:51:06;8.00;;;3.20;;
59093;SDS011;44880;52.814;18.270;2023-07-29T14:53:38;8.80;;;4.60;;
59093;SDS011;44880;52.814;18.270;2023-07-29T14:56:16;7.70;;;3.80;;
59093;SDS011;44880;52.814;18.270;2023-07-29T14:58:55;7.90;;;3.70;;
59093;SDS011;44880;52.814;18.270;2023-07-29T15:01:26;7.60;;;2.90;;
59093;SDS011;44880;52.814;18.270;2023-07-29T15:03:58;7.30;;;2.90;;
59093;SDS011;44880;52.814;18.270;2023-07-29T15:06:33;8.40;;;3.70;;
59093;SDS011;44880;52.814;18.270;2023-07-29T15:09:05;9.60;;;4.70;;
59093;SDS011;44880;52.814;18.270;2023-07-29T15:11:41;9.00;;;3.80;;
59093;SDS011;44880;52.814;18.270;2023-07-29T15:14:24;7.00;;;3.00;;
59093;SDS011;44880;52.814;18.270;2023-07-29T15:17:06;6.30;;;3.10;;
59093;SDS011;44880;52.814;18.270;2023-07-29T15:19:38;6.50;;;3.00;;
59093;SDS011;44880;52.814;18.270;2023-07-29T15:22:18;10.20;;;4.50;;
59093;SDS011;44880;52.814;18.270;2023-07-29T15:24:51;8.80;;;4.30;;
59093;SDS011;44880;52.814;18.270;2023-07-29T15:27:27;9.10;;;4.50;;
59093;SDS011;44880;52.814;18.270;2023-07-29T15:29:59;11.60;;;6.50;;
59093;SDS011;44880;52.814;18.270;2023-07-29T15:32:51;12.00;;;6.70;;
59093;SDS011;44880;52.814;18.270;2023-07-29T15:35:23;10.40;;;5.20;;
59093;SDS011;44880;52.814;18.270;2023-07-29T15:40:47;14.30;;;6.30;;
59093;SDS011;44880;52.814;18.270;2023-07-29T15:43:19;23.70;;;9.90;;
59093;SDS011;44880;52.814;18.270;2023-07-29T15:46:01;8.50;;;4.20;;
59093;SDS011;44880;52.814;18.270;2023-07-29T15:48:37;8.40;;;4.00;;
59093;SDS011;44880;52.814;18.270;2023-07-29T15:51:09;11.30;;;4.20;;
59093;SDS011;44880;52.814;18.270;2023-07-29T15:53:53;11.70;;;4.70;;
59093;SDS011;44880;52.814;18.270;2023-07-29T15:56:28;9.20;;;4.70;;
59093;SDS011;44880;52.814;18.270;2023-07-29T15:59:04;9.30;;;4.80;;
59093;SDS011;44880;52.814;18.270;2023-07-29T16:01:37;8.40;;;4.60;;
59093;SDS011;44880;52.814;18.270;2023-07-29T16:04:09;12.10;;;4.90;;
59093;SDS011;44880;52.814;18.270;2023-07-29T16:06:43;9.20;;;3.80;;
59093;SDS011;44880;52.814;18.270;2023-07-29T16:09:17;8.10;;;2.80;;
59093;SDS011;44880;52.814;18.270;2023-07-29T16:11:51;9.00;;;3.00;;
59093;SDS011;44880;52.814;18.270;2023-07-29T16:14:24;7.90;;;3.20;;
59093;SDS011;44880;52.814;18.270;2023-07-29T16:16:55;8.40;;;2.90;;
59093;SDS011;44880;52.814;18.270;2023-07-29T16:19:28;9.20;;;2.80;;
59093;SDS011;44880;52.814;18.270;2023-07-29T16:22:00;7.80;;;2.90;;
59093;SDS011;44880;52.814;18.270;2023-07-29T16:24:33;7.60;;;2.40;;
59093;SDS011;44880;52.814;18.270;2023-07-29T16:27:06;8.30;;;2.30;;
59093;SDS011;44880;52.814;18.270;2023-07-29T16:29:40;8.30;;;2.40;;
59093;SDS011;44880;52.814;18.270;2023-07-29T16:32:16;6.80;;;2.60;;
59093;SDS011;44880;52.814;18.270;2023-07-29T16:34:50;7.40;;;2.10;;
59093;SDS011;44880;52.814;18.270;2023-07-29T16:37:23;6.50;;;2.10;;
59093;SDS011;44880;52.814;18.270;2023-07-29T16:39:56;9.10;;;3.10;;
59093;SDS011;44880;52.814;18.270;2023-07-29T16:42:29;8.70;;;3.00;;
59093;SDS011;44880;52.814;18.270;2023-07-29T16:45:06;11.60;;;3.90;;
59093;SDS011;44880;52.814;18.270;2023-07-29T16:47:41;8.80;;;2.80;;
59093;SDS011;44880;52.814;18.270;2023-07-29T16:50:15;13.60;;;7.30;;
59093;SDS011;44880;52.814;18.270;2023-07-29T16:52:49;12.90;;;5.80;;
59093;SDS011;44880;52.814;18.270;2023-07-29T16:55:26;13.20;;;5.10;;
59093;SDS011;44880;52.814;18.270;2023-07-29T16:57:59;8.20;;;3.00;;
59093;SDS011;44880;52.814;18.270;2023-07-29T17:00:33;7.10;;;2.20;;
59093;SDS011;44880;52.814;18.270;2023-07-29T17:03:08;7.50;;;2.70;;
59093;SDS011;44880;52.814;18.270;2023-07-29T17:05:43;7.40;;;2.20;;
59093;SDS011;44880;52.814;18.270;2023-07-29T17:08:16;6.60;;;2.20;;
59093;SDS011;44880;52.814;18.270;2023-07-29T17:10:51;7.10;;;2.00;;
59093;SDS011;44880;52.814;18.270;2023-07-29T17:13:29;6.60;;;2.10;;
59093;SDS011;44880;52.814;18.270;2023-07-29T17:16:05;8.30;;;2.70;;
59093;SDS011;44880;52.814;18.270;2023-07-29T17:18:38;6.40;;;2.10;;
59093;SDS011;44880;52.814;18.270;2023-07-29T17:21:10;7.00;;;1.90;;
59093;SDS011;44880;52.814;18.270;2023-07-29T17:23:43;7.60;;;2.30;;
59093;SDS011;44880;52.814;18.270;2023-07-29T17:26:17;7.70;;;2.40;;
59093;SDS011;44880;52.814;18.270;2023-07-29T17:28:51;7.40;;;2.30;;
59093;SDS011;44880;52.814;18.270;2023-07-29T17:34:21;7.80;;;2.80;;
59093;SDS011;44880;52.814;18.270;2023-07-29T17:36:55;8.60;;;3.10;;
59093;SDS011;44880;52.814;18.270;2023-07-29T17:39:42;14.30;;;9.10;;
59093;SDS011;44880;52.814;18.270;2023-07-29T17:42:15;10.60;;;4.30;;
59093;SDS011;44880;52.814;18.270;2023-07-29T17:44:49;8.50;;;3.10;;